Welcome to our new website - Welkom op onze vernieuwde website - Bienvenue sur notre nouveau site web - Willkommen auf unserer neuen Website

Lokaal brand risico:
CBI


Regionaal brand risico: Meer informatie


Weerstation
Sluispark-LeuvenLeuven-Sluispark



Het weer levert geen direct gevaar op.    Er zijn geen waarschuwingen afgegeven.

Nabijgelegen vliegvelden - METAR rapporten

   
EBBR - Wilsele bij Leuven
Gewijzigd: 15-08-2018 12:20
Grotendeels bewolkt    Wind: ZW 13 km/h
Grotendeels bewolkt
Wind: Wind: ZW 13 km/h
Temperatuur: 20°C
Dauwpunt: 16°C
Vochtigheid: 78%
Barometer: 1020 hPa
Bewolking: Grotendeels bewolkt
Zicht: meer dan 10 km
Bewolking: Gedeeltelijk bewolkt 457.2 m,
Grotendeels bewolkt 640.1 m
EBBR 151020Z 22007KT 9999 SCT015 BKN021 20/16 Q1020 NOSIG
EBAW - Antwerp
Gewijzigd: 15-08-2018 12:20
Grotendeels bewolkt    Wind: ZW 11.1 km/h
Grotendeels bewolkt
Wind: Wind: ZW 11.1 km/h
Temperatuur: 20°C
Dauwpunt: 15°C
Vochtigheid: 73%
Barometer: 1020 hPa
Bewolking: Grotendeels bewolkt
Zicht: meer dan 10 km
Bewolking: Gedeeltelijk bewolkt 579.1 m,
Grotendeels bewolkt 883.9 m
EBAW 151020Z 22006KT 190V260 9999 SCT019 BKN029 20/15 Q1020 NOSIG
EBLG - Li├Ęge
Gewijzigd: 15-08-2018 12:20
Grotendeels bewolkt    Wind: ZZW 16.7 km/h
Grotendeels bewolkt
Wind: Wind: ZZW 16.7 km/h
Temperatuur: 19°C
Dauwpunt: 14°C
Vochtigheid: 73%
Barometer: 1021 hPa
Bewolking: Grotendeels bewolkt
Zicht: meer dan 10 km
Bewolking: Grotendeels bewolkt 548.6 m
EBLG 151020Z 20009KT 170V240 9999 BKN018 19/14 Q1021 NOSIG
EBCV - Mons/Bergen
Gewijzigd: 15-08-2018 12:37
Motregen, Bewolking    Wind: WZW 9.3 km/h
Motregen, Bewolking
Wind: Wind: WZW 9.3 km/h
Temperatuur: 18°C
Dauwpunt: 17°C
Vochtigheid: 94%
Barometer: 1021 hPa
Bewolking: Bewolking
Zicht: meer dan 10 km
Bewolking: Bewolking 426.7 m
EBCV 151037Z AUTO 25005KT 9999 DZ OVC014/// 18/17 Q1021 GRN
EHBK - Maastricht
Gewijzigd: 15-08-2018 12:25
Bewolking    Wind: ZW 24.1 km/h
Bewolking
Wind: Wind: ZW 24.1 km/h
Temperatuur: 20°C
Dauwpunt: 16°C
Vochtigheid: 78%
Barometer: 1020 hPa
Bewolking: Bewolking
Zicht: meer dan 10 km
Bewolking: Bewolking 457.2 m
EHBK 151025Z AUTO 23013KT 200V260 9999 OVC015 20/16 Q1020 NOSIG
ELLX - Luxemburg
Gewijzigd: 15-08-2018 12:20
Licht bewolkt    Wind: Westen 13 km/h
Licht bewolkt
Wind: Wind: Westen 13 km/h
Temperatuur: 21°C
Dauwpunt: 14°C
Vochtigheid: 64%
Barometer: 1022 hPa
Bewolking: Licht bewolkt
Zicht: meer dan 10 km
Bewolking: Licht bewolkt 762 m
ELLX 151020Z 27007KT 170V330 9999 FEW025 21/14 Q1022 NOSIG
EBOS - Oostende
Gewijzigd: 15-08-2018 12:20
Grotendeels bewolkt    Wind: ZZW 14.8 km/h
Grotendeels bewolkt
Wind: Wind: ZZW 14.8 km/h
Temperatuur: 17°C
Dauwpunt: 14°C
Vochtigheid: 83%
Barometer: 1020 hPa
Bewolking: Grotendeels bewolkt
Zicht: 6 km
Bewolking: Gedeeltelijk bewolkt 213.4 m,
Grotendeels bewolkt 335.3 m
EBOS 151020Z 21008KT 6000 SCT007 BKN011 17/14 Q1020 TEMPO 3500 BR
  

Script ontwikkeld door  Saratoga-weather.org Aangepast voor de template door  Weerstation Leuven

U vindt ons ook hier:

UK Metoffice

WeatherCloud

European Weather Network

Weather Underground

Benelux Weather Network

AWEKAS

WeatherlinkIP

Het Weer Aktueel

Apparatuur in gebruik:

Weer-station
Davis VP2 weatherstation

Weer-programma
Meteobridge

Weer-computer
D-Link DIR-505

Webleverancier
Robohost

Davis VP2 weatherstation

Meteobridge

D-Link DIR-505

Robohost